sensor_id;sensor_type;location;lat;lon;timestamp;temperature;humidity
41720;DHT22;27405;53.316;-6.294;2023-04-01T00:00:30;10.30;99.90
41720;DHT22;27405;53.316;-6.294;2023-04-01T00:02:56;10.30;99.90
41720;DHT22;27405;53.316;-6.294;2023-04-01T00:05:22;10.30;99.90
41720;DHT22;27405;53.316;-6.294;2023-04-01T00:07:49;10.30;99.90
41720;DHT22;27405;53.316;-6.294;2023-04-01T00:10:16;10.30;99.90
41720;DHT22;27405;53.316;-6.294;2023-04-01T00:12:43;10.40;99.90
41720;DHT22;27405;53.316;-6.294;2023-04-01T00:15:10;10.30;99.90
41720;DHT22;27405;53.316;-6.294;2023-04-01T00:17:37;10.40;99.90
41720;DHT22;27405;53.316;-6.294;2023-04-01T00:20:04;10.40;99.90
41720;DHT22;27405;53.316;-6.294;2023-04-01T00:22:29;10.30;99.90
41720;DHT22;27405;53.316;-6.294;2023-04-01T00:24:55;10.30;99.90
41720;DHT22;27405;53.316;-6.294;2023-04-01T00:27:21;10.40;99.90
41720;DHT22;27405;53.316;-6.294;2023-04-01T00:29:47;10.40;99.90
41720;DHT22;27405;53.316;-6.294;2023-04-01T00:32:15;10.40;99.90
41720;DHT22;27405;53.316;-6.294;2023-04-01T00:34:41;10.40;99.90
41720;DHT22;27405;53.316;-6.294;2023-04-01T00:37:07;10.40;99.90
41720;DHT22;27405;53.316;-6.294;2023-04-01T00:39:34;10.40;99.90
41720;DHT22;27405;53.316;-6.294;2023-04-01T00:42:00;10.40;99.90
41720;DHT22;27405;53.316;-6.294;2023-04-01T00:44:32;10.40;99.90
41720;DHT22;27405;53.316;-6.294;2023-04-01T00:47:00;10.40;99.90
41720;DHT22;27405;53.316;-6.294;2023-04-01T00:49:37;10.40;99.90
41720;DHT22;27405;53.316;-6.294;2023-04-01T00:52:06;10.40;99.90
41720;DHT22;27405;53.316;-6.294;2023-04-01T00:54:34;10.40;99.90
41720;DHT22;27405;53.316;-6.294;2023-04-01T00:57:17;10.40;99.90
41720;DHT22;27405;53.316;-6.294;2023-04-01T00:59:46;10.30;99.90
41720;DHT22;27405;53.316;-6.294;2023-04-01T01:02:15;10.40;99.90
41720;DHT22;27405;53.316;-6.294;2023-04-01T01:04:41;10.30;99.90
41720;DHT22;27405;53.316;-6.294;2023-04-01T01:34:34;10.30;99.90
41720;DHT22;27405;53.316;-6.294;2023-04-01T01:37:06;10.30;99.90
41720;DHT22;27405;53.316;-6.294;2023-04-01T01:39:34;10.30;99.90
41720;DHT22;27405;53.316;-6.294;2023-04-01T01:42:04;10.30;99.90
41720;DHT22;27405;53.316;-6.294;2023-04-01T01:44:32;10.20;99.90
41720;DHT22;27405;53.316;-6.294;2023-04-01T01:47:00;10.20;99.90
41720;DHT22;27405;53.316;-6.294;2023-04-01T01:49:27;10.20;99.90
41720;DHT22;27405;53.316;-6.294;2023-04-01T01:51:56;10.20;99.90
41720;DHT22;27405;53.316;-6.294;2023-04-01T01:54:22;10.10;99.90
41720;DHT22;27405;53.316;-6.294;2023-04-01T01:56:55;10.20;99.90
41720;DHT22;27405;53.316;-6.294;2023-04-01T01:59:24;10.10;99.90
41720;DHT22;27405;53.316;-6.294;2023-04-01T02:01:52;10.10;99.90
41720;DHT22;27405;53.316;-6.294;2023-04-01T02:04:21;10.10;99.90
41720;DHT22;27405;53.316;-6.294;2023-04-01T02:06:58;10.10;99.90
41720;DHT22;27405;53.316;-6.294;2023-04-01T02:09:26;10.10;99.90
41720;DHT22;27405;53.316;-6.294;2023-04-01T02:11:56;10.10;99.90
41720;DHT22;27405;53.316;-6.294;2023-04-01T02:14:36;10.10;99.90
41720;DHT22;27405;53.316;-6.294;2023-04-01T02:17:10;10.10;99.90
41720;DHT22;27405;53.316;-6.294;2023-04-01T02:19:40;10.10;99.90
41720;DHT22;27405;53.316;-6.294;2023-04-01T02:22:11;10.10;99.90
41720;DHT22;27405;53.316;-6.294;2023-04-01T02:24:40;10.10;99.90
41720;DHT22;27405;53.316;-6.294;2023-04-01T02:27:06;10.10;99.90
41720;DHT22;27405;53.316;-6.294;2023-04-01T02:29:32;10.00;99.90
41720;DHT22;27405;53.316;-6.294;2023-04-01T02:31:58;10.10;99.90
41720;DHT22;27405;53.316;-6.294;2023-04-01T02:34:26;10.10;99.90
41720;DHT22;27405;53.316;-6.294;2023-04-01T02:36:51;10.10;99.90
41720;DHT22;27405;53.316;-6.294;2023-04-01T02:39:18;10.10;99.90
41720;DHT22;27405;53.316;-6.294;2023-04-01T02:41:45;10.10;99.90
41720;DHT22;27405;53.316;-6.294;2023-04-01T02:44:13;10.10;99.90
41720;DHT22;27405;53.316;-6.294;2023-04-01T02:46:39;10.10;99.90
41720;DHT22;27405;53.316;-6.294;2023-04-01T02:49:05;10.10;99.90
41720;DHT22;27405;53.316;-6.294;2023-04-01T02:51:32;10.10;99.90
41720;DHT22;27405;53.316;-6.294;2023-04-01T02:53:57;10.10;99.90
41720;DHT22;27405;53.316;-6.294;2023-04-01T02:56:23;10.10;99.90
41720;DHT22;27405;53.316;-6.294;2023-04-01T02:58:49;10.10;99.90
41720;DHT22;27405;53.316;-6.294;2023-04-01T03:01:14;10.10;99.90
41720;DHT22;27405;53.316;-6.294;2023-04-01T03:03:40;10.10;99.90
41720;DHT22;27405;53.316;-6.294;2023-04-01T03:06:08;10.10;99.90
41720;DHT22;27405;53.316;-6.294;2023-04-01T03:08:34;10.10;99.90
41720;DHT22;27405;53.316;-6.294;2023-04-01T03:10:59;10.10;99.90
41720;DHT22;27405;53.316;-6.294;2023-04-01T03:13:25;10.10;99.90
41720;DHT22;27405;53.316;-6.294;2023-04-01T03:15:51;10.10;99.90
41720;DHT22;27405;53.316;-6.294;2023-04-01T03:18:17;10.10;99.90
41720;DHT22;27405;53.316;-6.294;2023-04-01T03:20:44;10.10;99.90
41720;DHT22;27405;53.316;-6.294;2023-04-01T03:23:10;10.10;99.90
41720;DHT22;27405;53.316;-6.294;2023-04-01T03:25:36;10.10;99.90
41720;DHT22;27405;53.316;-6.294;2023-04-01T03:28:02;10.10;99.90
41720;DHT22;27405;53.316;-6.294;2023-04-01T03:30:28;10.10;99.90
41720;DHT22;27405;53.316;-6.294;2023-04-01T03:32:59;10.10;99.90
41720;DHT22;27405;53.316;-6.294;2023-04-01T03:35:26;10.10;99.90
41720;DHT22;27405;53.316;-6.294;2023-04-01T03:37:52;10.10;99.90
41720;DHT22;27405;53.316;-6.294;2023-04-01T03:40:18;10.10;99.90
41720;DHT22;27405;53.316;-6.294;2023-04-01T03:42:44;10.10;99.90
41720;DHT22;27405;53.316;-6.294;2023-04-01T03:45:10;10.10;99.90
41720;DHT22;27405;53.316;-6.294;2023-04-01T03:47:37;10.10;99.90
41720;DHT22;27405;53.316;-6.294;2023-04-01T03:50:04;10.10;99.90
41720;DHT22;27405;53.316;-6.294;2023-04-01T03:52:29;10.10;99.90
41720;DHT22;27405;53.316;-6.294;2023-04-01T03:54:55;10.10;99.90
41720;DHT22;27405;53.316;-6.294;2023-04-01T03:57:21;10.10;99.90
41720;DHT22;27405;53.316;-6.294;2023-04-01T03:59:48;10.10;99.90
41720;DHT22;27405;53.316;-6.294;2023-04-01T04:02:14;10.10;99.90
41720;DHT22;27405;53.316;-6.294;2023-04-01T04:04:40;10.10;99.90
41720;DHT22;27405;53.316;-6.294;2023-04-01T04:07:06;10.10;99.90
41720;DHT22;27405;53.316;-6.294;2023-04-01T04:09:33;10.10;99.90
41720;DHT22;27405;53.316;-6.294;2023-04-01T04:11:59;10.10;99.90
41720;DHT22;27405;53.316;-6.294;2023-04-01T04:14:25;10.00;99.90
41720;DHT22;27405;53.316;-6.294;2023-04-01T04:16:51;10.00;99.90
41720;DHT22;27405;53.316;-6.294;2023-04-01T04:19:17;10.00;99.90
41720;DHT22;27405;53.316;-6.294;2023-04-01T04:21:42;10.00;99.90
41720;DHT22;27405;53.316;-6.294;2023-04-01T04:24:09;10.00;99.90
41720;DHT22;27405;53.316;-6.294;2023-04-01T04:26:35;10.00;99.90
41720;DHT22;27405;53.316;-6.294;2023-04-01T04:29:01;10.00;99.90
41720;DHT22;27405;53.316;-6.294;2023-04-01T04:31:27;9.90;99.90
41720;DHT22;27405;53.316;-6.294;2023-04-01T04:33:53;9.90;99.90
41720;DHT22;27405;53.316;-6.294;2023-04-01T04:36:20;9.90;99.90
41720;DHT22;27405;53.316;-6.294;2023-04-01T04:38:46;9.90;99.90
41720;DHT22;27405;53.316;-6.294;2023-04-01T04:41:14;9.90;99.90
41720;DHT22;27405;53.316;-6.294;2023-04-01T04:43:41;9.90;99.90
41720;DHT22;27405;53.316;-6.294;2023-04-01T04:46:10;9.90;99.90
41720;DHT22;27405;53.316;-6.294;2023-04-01T04:48:36;9.90;99.90
41720;DHT22;27405;53.316;-6.294;2023-04-01T04:51:02;9.90;99.90
41720;DHT22;27405;53.316;-6.294;2023-04-01T04:53:28;9.90;99.90
41720;DHT22;27405;53.316;-6.294;2023-04-01T04:55:55;9.90;99.90
41720;DHT22;27405;53.316;-6.294;2023-04-01T04:58:20;9.90;99.90
41720;DHT22;27405;53.316;-6.294;2023-04-01T05:00:47;9.80;99.90
41720;DHT22;27405;53.316;-6.294;2023-04-01T05:03:13;9.80;99.90
41720;DHT22;27405;53.316;-6.294;2023-04-01T05:05:39;9.80;99.90
41720;DHT22;27405;53.316;-6.294;2023-04-01T05:08:06;9.80;99.90
41720;DHT22;27405;53.316;-6.294;2023-04-01T05:10:32;9.90;99.90
41720;DHT22;27405;53.316;-6.294;2023-04-01T05:12:58;9.80;99.90
41720;DHT22;27405;53.316;-6.294;2023-04-01T05:15:24;9.90;99.90
41720;DHT22;27405;53.316;-6.294;2023-04-01T05:17:50;9.90;99.90
41720;DHT22;27405;53.316;-6.294;2023-04-01T05:20:16;9.80;99.90
41720;DHT22;27405;53.316;-6.294;2023-04-01T05:22:42;9.80;99.90
41720;DHT22;27405;53.316;-6.294;2023-04-01T05:25:08;9.80;99.90
41720;DHT22;27405;53.316;-6.294;2023-04-01T05:27:34;9.80;99.90
41720;DHT22;27405;53.316;-6.294;2023-04-01T05:30:00;9.80;99.90
41720;DHT22;27405;53.316;-6.294;2023-04-01T05:32:25;9.80;99.90
41720;DHT22;27405;53.316;-6.294;2023-04-01T05:34:52;9.80;99.90
41720;DHT22;27405;53.316;-6.294;2023-04-01T05:37:18;9.80;99.90
41720;DHT22;27405;53.316;-6.294;2023-04-01T05:39:44;9.80;99.90
41720;DHT22;27405;53.316;-6.294;2023-04-01T05:42:10;9.80;99.90
41720;DHT22;27405;53.316;-6.294;2023-04-01T05:44:36;9.80;99.90
41720;DHT22;27405;53.316;-6.294;2023-04-01T05:47:03;9.80;99.90
41720;DHT22;27405;53.316;-6.294;2023-04-01T05:49:29;9.80;99.90
41720;DHT22;27405;53.316;-6.294;2023-04-01T05:51:55;9.80;99.90
41720;DHT22;27405;53.316;-6.294;2023-04-01T05:54:21;9.70;99.90
41720;DHT22;27405;53.316;-6.294;2023-04-01T05:56:46;9.80;99.90
41720;DHT22;27405;53.316;-6.294;2023-04-01T05:59:12;9.80;99.90
41720;DHT22;27405;53.316;-6.294;2023-04-01T06:01:39;9.80;99.90
41720;DHT22;27405;53.316;-6.294;2023-04-01T06:04:04;9.80;99.90
41720;DHT22;27405;53.316;-6.294;2023-04-01T06:06:31;9.80;99.90
41720;DHT22;27405;53.316;-6.294;2023-04-01T06:09:06;9.80;99.90
41720;DHT22;27405;53.316;-6.294;2023-04-01T06:33:30;10.10;99.90
41720;DHT22;27405;53.316;-6.294;2023-04-01T06:42:04;10.10;99.90
41720;DHT22;27405;53.316;-6.294;2023-04-01T06:44:33;10.10;99.90
41720;DHT22;27405;53.316;-6.294;2023-04-01T06:50:05;10.10;99.90
41720;DHT22;27405;53.316;-6.294;2023-04-01T06:55:24;10.10;99.90
41720;DHT22;27405;53.316;-6.294;2023-04-01T06:57:55;10.10;99.90
41720;DHT22;27405;53.316;-6.294;2023-04-01T07:00:36;10.20;99.90
41720;DHT22;27405;53.316;-6.294;2023-04-01T07:03:34;10.20;99.90
41720;DHT22;27405;53.316;-6.294;2023-04-01T07:06:04;10.20;99.90
41720;DHT22;27405;53.316;-6.294;2023-04-01T07:08:31;10.20;99.90
41720;DHT22;27405;53.316;-6.294;2023-04-01T07:11:04;10.20;99.90
41720;DHT22;27405;53.316;-6.294;2023-04-01T07:16:36;10.20;99.90
41720;DHT22;27405;53.316;-6.294;2023-04-01T07:24:17;10.20;99.90
41720;DHT22;27405;53.316;-6.294;2023-04-01T07:26:55;10.20;99.90
41720;DHT22;27405;53.316;-6.294;2023-04-01T07:29:21;10.20;99.90
41720;DHT22;27405;53.316;-6.294;2023-04-01T07:32:00;10.20;99.90
41720;DHT22;27405;53.316;-6.294;2023-04-01T07:37:20;10.20;99.90
41720;DHT22;27405;53.316;-6.294;2023-04-01T07:42:45;10.20;99.90
41720;DHT22;27405;53.316;-6.294;2023-04-01T07:50:40;10.30;99.90
41720;DHT22;27405;53.316;-6.294;2023-04-01T07:56:01;10.30;99.90
41720;DHT22;27405;53.316;-6.294;2023-04-01T07:58:44;10.40;99.90
41720;DHT22;27405;53.316;-6.294;2023-04-01T08:01:39;10.40;99.90
41720;DHT22;27405;53.316;-6.294;2023-04-01T08:07:58;10.50;99.90
41720;DHT22;27405;53.316;-6.294;2023-04-01T08:13:04;10.50;99.90
41720;DHT22;27405;53.316;-6.294;2023-04-01T08:15:44;10.50;99.90
41720;DHT22;27405;53.316;-6.294;2023-04-01T08:26:04;10.60;99.90
41720;DHT22;27405;53.316;-6.294;2023-04-01T08:31:11;10.60;99.90
41720;DHT22;27405;53.316;-6.294;2023-04-01T08:33:40;10.60;99.90
41720;DHT22;27405;53.316;-6.294;2023-04-01T08:36:13;10.60;99.90
41720;DHT22;27405;53.316;-6.294;2023-04-01T08:38:54;10.60;99.90
41720;DHT22;27405;53.316;-6.294;2023-04-01T08:52:21;10.90;99.90
41720;DHT22;27405;53.316;-6.294;2023-04-01T09:00:43;10.90;99.90
41720;DHT22;27405;53.316;-6.294;2023-04-01T09:06:38;10.90;99.90
41720;DHT22;27405;53.316;-6.294;2023-04-01T09:33:52;11.40;99.90
41720;DHT22;27405;53.316;-6.294;2023-04-01T09:36:55;11.40;99.90
41720;DHT22;27405;53.316;-6.294;2023-04-01T09:45:09;11.50;99.90
41720;DHT22;27405;53.316;-6.294;2023-04-01T09:51:06;11.60;99.90
41720;DHT22;27405;53.316;-6.294;2023-04-01T10:21:07;12.10;99.90
41720;DHT22;27405;53.316;-6.294;2023-04-01T10:26:48;12.10;99.90
41720;DHT22;27405;53.316;-6.294;2023-04-01T10:37:52;12.40;99.90
41720;DHT22;27405;53.316;-6.294;2023-04-01T10:44:03;12.40;99.90
41720;DHT22;27405;53.316;-6.294;2023-04-01T10:46:44;12.40;99.90
41720;DHT22;27405;53.316;-6.294;2023-04-01T11:00:21;13.10;99.90
41720;DHT22;27405;53.316;-6.294;2023-04-01T11:06:08;13.00;99.90
41720;DHT22;27405;53.316;-6.294;2023-04-01T11:11:50;12.90;99.90
41720;DHT22;27405;53.316;-6.294;2023-04-01T11:14:44;12.90;99.90
41720;DHT22;27405;53.316;-6.294;2023-04-01T11:28:47;13.00;99.90
41720;DHT22;27405;53.316;-6.294;2023-04-01T11:37:09;13.20;99.90
41720;DHT22;27405;53.316;-6.294;2023-04-01T11:51:17;13.50;99.90
41720;DHT22;27405;53.316;-6.294;2023-04-01T11:54:09;13.50;99.90
41720;DHT22;27405;53.316;-6.294;2023-04-01T12:07:53;13.80;99.90
41720;DHT22;27405;53.316;-6.294;2023-04-01T12:10:59;13.80;99.90
41720;DHT22;27405;53.316;-6.294;2023-04-01T12:21:33;14.10;99.90
41720;DHT22;27405;53.316;-6.294;2023-04-01T12:29:41;14.10;99.90
41720;DHT22;27405;53.316;-6.294;2023-04-01T12:43:56;14.60;99.90
41720;DHT22;27405;53.316;-6.294;2023-04-01T12:52:11;15.00;99.90
41720;DHT22;27405;53.316;-6.294;2023-04-01T12:57:32;14.90;99.90
41720;DHT22;27405;53.316;-6.294;2023-04-01T13:03:07;14.80;99.90
41720;DHT22;27405;53.316;-6.294;2023-04-01T13:09:11;14.80;99.90
41720;DHT22;27405;53.316;-6.294;2023-04-01T13:31:01;14.90;99.90
41720;DHT22;27405;53.316;-6.294;2023-04-01T13:45:49;15.10;99.90
41720;DHT22;27405;53.316;-6.294;2023-04-01T13:56:46;14.80;99.90
41720;DHT22;27405;53.316;-6.294;2023-04-01T14:01:53;14.60;99.90
41720;DHT22;27405;53.316;-6.294;2023-04-01T14:13:20;14.00;99.90
41720;DHT22;27405;53.316;-6.294;2023-04-01T14:15:54;13.90;99.90
41720;DHT22;27405;53.316;-6.294;2023-04-01T14:21:30;13.70;99.90
41720;DHT22;27405;53.316;-6.294;2023-04-01T14:24:22;13.60;99.90
41720;DHT22;27405;53.316;-6.294;2023-04-01T14:43:28;13.40;99.90
41720;DHT22;27405;53.316;-6.294;2023-04-01T14:48:32;13.30;99.90
41720;DHT22;27405;53.316;-6.294;2023-04-01T14:51:38;13.30;99.90
41720;DHT22;27405;53.316;-6.294;2023-04-01T14:54:19;13.20;99.90
41720;DHT22;27405;53.316;-6.294;2023-04-01T14:59:32;13.00;99.90
41720;DHT22;27405;53.316;-6.294;2023-04-01T15:12:58;13.00;99.90
41720;DHT22;27405;53.316;-6.294;2023-04-01T15:15:59;13.00;99.90
41720;DHT22;27405;53.316;-6.294;2023-04-01T15:23:57;12.60;99.90
41720;DHT22;27405;53.316;-6.294;2023-04-01T15:35:13;12.20;99.90
41720;DHT22;27405;53.316;-6.294;2023-04-01T15:37:57;12.10;99.90
41720;DHT22;27405;53.316;-6.294;2023-04-01T15:48:54;12.00;99.90
41720;DHT22;27405;53.316;-6.294;2023-04-01T15:57:08;12.00;99.90
41720;DHT22;27405;53.316;-6.294;2023-04-01T16:00:02;12.00;99.90
41720;DHT22;27405;53.316;-6.294;2023-04-01T16:02:35;12.00;99.90
41720;DHT22;27405;53.316;-6.294;2023-04-01T16:16:51;11.50;99.90
41720;DHT22;27405;53.316;-6.294;2023-04-01T16:21:58;11.60;99.90
41720;DHT22;27405;53.316;-6.294;2023-04-01T16:24:51;11.70;99.90
41720;DHT22;27405;53.316;-6.294;2023-04-01T16:30:55;11.80;99.90
41720;DHT22;27405;53.316;-6.294;2023-04-01T16:33:36;11.80;99.90
41720;DHT22;27405;53.316;-6.294;2023-04-01T16:36:24;11.80;99.90
41720;DHT22;27405;53.316;-6.294;2023-04-01T16:41:57;11.70;99.90
41720;DHT22;27405;53.316;-6.294;2023-04-01T16:45:01;11.60;99.90
41720;DHT22;27405;53.316;-6.294;2023-04-01T16:47:45;11.70;99.90
41720;DHT22;27405;53.316;-6.294;2023-04-01T16:50:27;11.70;99.90
41720;DHT22;27405;53.316;-6.294;2023-04-01T16:55:57;11.60;99.90
41720;DHT22;27405;53.316;-6.294;2023-04-01T16:58:36;11.50;99.90
41720;DHT22;27405;53.316;-6.294;2023-04-01T17:01:19;11.50;99.90
41720;DHT22;27405;53.316;-6.294;2023-04-01T17:03:57;11.40;99.90
41720;DHT22;27405;53.316;-6.294;2023-04-01T17:06:48;11.40;99.90
41720;DHT22;27405;53.316;-6.294;2023-04-01T17:22:56;11.00;99.90
41720;DHT22;27405;53.316;-6.294;2023-04-01T17:28:17;10.90;99.90
41720;DHT22;27405;53.316;-6.294;2023-04-01T17:32:01;10.80;99.90
41720;DHT22;27405;53.316;-6.294;2023-04-01T17:40:44;10.60;99.90
41720;DHT22;27405;53.316;-6.294;2023-04-01T17:43:48;10.60;99.90
41720;DHT22;27405;53.316;-6.294;2023-04-01T18:00:19;10.50;99.90
41720;DHT22;27405;53.316;-6.294;2023-04-01T18:16:34;10.50;99.90
41720;DHT22;27405;53.316;-6.294;2023-04-01T18:22:16;10.40;99.90
41720;DHT22;27405;53.316;-6.294;2023-04-01T18:38:53;10.10;99.90
41720;DHT22;27405;53.316;-6.294;2023-04-01T18:41:22;10.00;99.90
41720;DHT22;27405;53.316;-6.294;2023-04-01T18:44:56;10.00;99.90
41720;DHT22;27405;53.316;-6.294;2023-04-01T18:47:50;10.00;99.90
41720;DHT22;27405;53.316;-6.294;2023-04-01T18:50:41;10.00;99.90
41720;DHT22;27405;53.316;-6.294;2023-04-01T18:53:48;10.00;99.90
41720;DHT22;27405;53.316;-6.294;2023-04-01T18:59:27;10.00;99.90
41720;DHT22;27405;53.316;-6.294;2023-04-01T19:02:27;10.00;99.90
41720;DHT22;27405;53.316;-6.294;2023-04-01T19:10:07;10.00;99.90
41720;DHT22;27405;53.316;-6.294;2023-04-01T19:16:15;9.90;99.90
41720;DHT22;27405;53.316;-6.294;2023-04-01T19:21:19;9.90;99.90
41720;DHT22;27405;53.316;-6.294;2023-04-01T19:26:49;10.00;99.90
41720;DHT22;27405;53.316;-6.294;2023-04-01T19:37:08;10.00;99.90
41720;DHT22;27405;53.316;-6.294;2023-04-01T19:53:25;9.90;99.90
41720;DHT22;27405;53.316;-6.294;2023-04-01T19:56:18;9.90;99.90
41720;DHT22;27405;53.316;-6.294;2023-04-01T20:01:44;9.90;99.90
41720;DHT22;27405;53.316;-6.294;2023-04-01T20:07:00;9.90;99.90
41720;DHT22;27405;53.316;-6.294;2023-04-01T20:09:53;9.90;99.90
41720;DHT22;27405;53.316;-6.294;2023-04-01T20:12:29;9.90;99.90
41720;DHT22;27405;53.316;-6.294;2023-04-01T20:15:04;9.90;99.90
41720;DHT22;27405;53.316;-6.294;2023-04-01T20:17:43;9.90;99.90
41720;DHT22;27405;53.316;-6.294;2023-04-01T20:25:23;9.90;99.90
41720;DHT22;27405;53.316;-6.294;2023-04-01T20:28:10;9.90;99.90
41720;DHT22;27405;53.316;-6.294;2023-04-01T20:41:20;9.90;99.90
41720;DHT22;27405;53.316;-6.294;2023-04-01T20:46:30;9.90;99.90
41720;DHT22;27405;53.316;-6.294;2023-04-01T20:49:38;9.90;99.90
41720;DHT22;27405;53.316;-6.294;2023-04-01T20:52:17;9.90;99.90
41720;DHT22;27405;53.316;-6.294;2023-04-01T20:59:48;9.80;99.90
41720;DHT22;27405;53.316;-6.294;2023-04-01T21:02:32;9.80;99.90
41720;DHT22;27405;53.316;-6.294;2023-04-01T21:08:14;9.80;99.90
41720;DHT22;27405;53.316;-6.294;2023-04-01T21:11:09;9.80;99.90
41720;DHT22;27405;53.316;-6.294;2023-04-01T21:14:07;9.80;99.90
41720;DHT22;27405;53.316;-6.294;2023-04-01T21:19:50;9.80;99.90
41720;DHT22;27405;53.316;-6.294;2023-04-01T21:38:56;9.90;99.90
41720;DHT22;27405;53.316;-6.294;2023-04-01T22:05:30;9.90;99.90
41720;DHT22;27405;53.316;-6.294;2023-04-01T22:18:45;9.80;99.90
41720;DHT22;27405;53.316;-6.294;2023-04-01T22:31:49;9.90;99.90
41720;DHT22;27405;53.316;-6.294;2023-04-01T22:34:17;9.90;99.90
41720;DHT22;27405;53.316;-6.294;2023-04-01T22:37:21;9.90;99.90
41720;DHT22;27405;53.316;-6.294;2023-04-01T22:56:34;9.80;99.90
41720;DHT22;27405;53.316;-6.294;2023-04-01T23:02:27;9.80;99.90
41720;DHT22;27405;53.316;-6.294;2023-04-01T23:04:57;9.80;99.90
41720;DHT22;27405;53.316;-6.294;2023-04-01T23:07:43;9.80;99.90
41720;DHT22;27405;53.316;-6.294;2023-04-01T23:10:42;9.80;99.90
41720;DHT22;27405;53.316;-6.294;2023-04-01T23:13:19;9.80;99.90
41720;DHT22;27405;53.316;-6.294;2023-04-01T23:15:46;9.80;99.90
41720;DHT22;27405;53.316;-6.294;2023-04-01T23:18:24;9.80;99.90
41720;DHT22;27405;53.316;-6.294;2023-04-01T23:27:03;9.80;99.90
41720;DHT22;27405;53.316;-6.294;2023-04-01T23:29:35;9.80;99.90
41720;DHT22;27405;53.316;-6.294;2023-04-01T23:32:03;9.80;99.90
41720;DHT22;27405;53.316;-6.294;2023-04-01T23:34:34;9.80;99.90
41720;DHT22;27405;53.316;-6.294;2023-04-01T23:37:07;9.80;99.90
41720;DHT22;27405;53.316;-6.294;2023-04-01T23:39:46;9.80;99.90
41720;DHT22;27405;53.316;-6.294;2023-04-01T23:42:31;9.70;99.90
41720;DHT22;27405;53.316;-6.294;2023-04-01T23:45:11;9.70;99.90
41720;DHT22;27405;53.316;-6.294;2023-04-01T23:47:40;9.70;99.90
41720;DHT22;27405;53.316;-6.294;2023-04-01T23:50:24;9.70;99.90
41720;DHT22;27405;53.316;-6.294;2023-04-01T23:53:02;9.70;99.90
41720;DHT22;27405;53.316;-6.294;2023-04-01T23:55:32;9.70;99.90
